Date,TemperatureHighF,TemperatureAvgF,TemperatureLowF,DewpointHighF,DewpointAvgF,DewpointLowF,HumidityHigh,HumidityAvg,HumidityLow,PressureMaxIn,PressureMinIn,WindSpeedMaxMPH,WindSpeedAvgMPH,GustSpeedMaxMPH,PrecipitationSumIn
2013-2-1,62,47,41,0,0,0,0,0,100,0.00,0.00,8,2,10,0.00
2013-2-2,46,41,38,0,0,0,0,0,100,0.00,0.00,8,2,8,0.00
2013-2-3,52,43,38,0,0,0,0,0,100,0.00,0.00,7,2,8,0.00
2013-2-4,60,47,43,0,0,0,0,0,100,0.00,0.00,8,2,8,0.00
2013-2-5,58,46,42,0,0,0,0,0,100,0.00,0.00,13,3,16,0.00
2013-2-6,57,46,42,0,0,0,0,0,100,0.00,0.00,12,3,13,0.00
2013-2-7,63,46,36,0,0,0,0,0,100,0.00,0.00,14,3,19,0.00
2013-2-8,54,42,34,0,0,0,0,0,100,0.00,0.00,6,1,7,0.00
2013-2-9,51,43,40,0,0,0,0,0,100,0.00,0.00,5,1,5,0.00
2013-2-10,60,43,34,0,0,0,0,0,100,0.00,0.00,6,2,8,0.00
2013-2-11,51,44,39,0,0,0,0,0,100,0.00,0.00,6,1,8,0.00
2013-2-12,52,47,44,0,0,0,0,0,100,0.00,0.00,15,3,18,0.00
2013-2-13,51,47,44,0,0,0,0,0,100,0.00,0.00,11,2,13,0.00
2013-2-14,57,46,42,0,0,0,0,0,100,0.00,0.00,6,2,8,0.00
2013-2-15,66,48,38,0,0,0,0,0,100,0.00,0.00,8,2,10,0.00
2013-2-16,64,47,37,0,0,0,0,0,100,0.00,0.00,14,3,18,0.00
2013-2-17,61,43,39,0,0,0,0,0,100,0.00,0.00,7,2,8,0.00
2013-2-18,58,43,38,0,0,0,0,0,100,0.00,0.00,7,2,8,0.00
2013-2-19,63,45,33,0,0,0,0,0,100,0.00,0.00,11,2,13,0.00
2013-2-20,49,40,32,0,0,0,0,0,100,0.00,0.00,9,2,11,0.00
2013-2-21,47,42,39,0,0,0,0,0,100,0.00,0.00,14,4,18,0.00
2013-2-22,51,42,37,0,0,0,0,0,100,0.00,0.00,17,5,24,0.00
2013-2-23,64,44,38,0,0,0,0,0,100,0.00,0.00,9,3,12,0.00
2013-2-24,53,45,40,0,0,0,0,0,100,0.00,0.00,13,4,14,0.00
2013-2-25,62,45,36,0,0,0,0,0,100,0.00,0.00,16,5,21,0.00
2013-2-26,55,44,37,0,0,0,0,0,100,0.00,0.00,10,3,13,0.00
2013-2-27,60,45,37,0,0,0,0,0,100,0.00,0.00,9,2,10,0.00
2013-2-28,53,47,42,0,0,0,0,0,100,0.00,0.00,11,2,16,0.00